sensor_id;sensor_type;location;lat;lon;timestamp;P1;durP1;ratioP1;P2;durP2;ratioP2
24381;SDS011;12502;50.678;7.172;2022-12-18T00:04:42;52.08;;;22.42;;
24381;SDS011;12502;50.678;7.172;2022-12-18T00:09:43;49.38;;;21.67;;
24381;SDS011;12502;50.678;7.172;2022-12-18T00:14:46;49.58;;;20.42;;
24381;SDS011;12502;50.678;7.172;2022-12-18T00:19:48;51.25;;;22.75;;
24381;SDS011;12502;50.678;7.172;2022-12-18T00:24:49;54.28;;;23.17;;
24381;SDS011;12502;50.678;7.172;2022-12-18T00:29:51;48.20;;;21.27;;
24381;SDS011;12502;50.678;7.172;2022-12-18T00:34:53;52.05;;;20.67;;
24381;SDS011;12502;50.678;7.172;2022-12-18T00:39:54;50.50;;;21.20;;
24381;SDS011;12502;50.678;7.172;2022-12-18T00:44:56;46.05;;;19.67;;
24381;SDS011;12502;50.678;7.172;2022-12-18T00:49:57;44.08;;;20.52;;
24381;SDS011;12502;50.678;7.172;2022-12-18T00:54:59;52.17;;;21.63;;
24381;SDS011;12502;50.678;7.172;2022-12-18T01:00:07;44.60;;;20.38;;
24381;SDS011;12502;50.678;7.172;2022-12-18T01:05:12;48.58;;;21.70;;
24381;SDS011;12502;50.678;7.172;2022-12-18T01:10:14;45.58;;;20.27;;
24381;SDS011;12502;50.678;7.172;2022-12-18T01:15:16;52.25;;;21.63;;
24381;SDS011;12502;50.678;7.172;2022-12-18T01:20:18;47.80;;;20.10;;
24381;SDS011;12502;50.678;7.172;2022-12-18T01:25:20;42.95;;;20.08;;
24381;SDS011;12502;50.678;7.172;2022-12-18T01:30:22;54.42;;;22.75;;
24381;SDS011;12502;50.678;7.172;2022-12-18T01:35:23;46.95;;;21.00;;
24381;SDS011;12502;50.678;7.172;2022-12-18T01:40:25;53.13;;;21.83;;
24381;SDS011;12502;50.678;7.172;2022-12-18T01:45:28;48.38;;;22.60;;
24381;SDS011;12502;50.678;7.172;2022-12-18T01:50:33;54.28;;;21.73;;
24381;SDS011;12502;50.678;7.172;2022-12-18T01:56:00;52.80;;;22.40;;
24381;SDS011;12502;50.678;7.172;2022-12-18T02:01:00;48.78;;;20.25;;
24381;SDS011;12502;50.678;7.172;2022-12-18T02:06:13;31.40;;;15.00;;
24381;SDS011;12502;50.678;7.172;2022-12-18T02:21:57;50.70;;;21.90;;
24381;SDS011;12502;50.678;7.172;2022-12-18T02:27:25;51.55;;;21.27;;
24381;SDS011;12502;50.678;7.172;2022-12-18T02:32:29;54.20;;;22.50;;
24381;SDS011;12502;50.678;7.172;2022-12-18T02:37:35;51.15;;;21.00;;
24381;SDS011;12502;50.678;7.172;2022-12-18T02:42:40;50.25;;;20.30;;
24381;SDS011;12502;50.678;7.172;2022-12-18T02:47:42;51.05;;;22.35;;
24381;SDS011;12502;50.678;7.172;2022-12-18T03:03:35;60.97;;;23.48;;
24381;SDS011;12502;50.678;7.172;2022-12-18T03:08:50;54.78;;;21.35;;
24381;SDS011;12502;50.678;7.172;2022-12-18T03:14:00;55.38;;;22.33;;
24381;SDS011;12502;50.678;7.172;2022-12-18T03:19:04;55.88;;;22.13;;
24381;SDS011;12502;50.678;7.172;2022-12-18T03:24:10;53.63;;;22.33;;
24381;SDS011;12502;50.678;7.172;2022-12-18T03:29:14;48.28;;;19.90;;
24381;SDS011;12502;50.678;7.172;2022-12-18T03:34:39;50.67;;;20.83;;
24381;SDS011;12502;50.678;7.172;2022-12-18T03:39:43;52.03;;;20.45;;
24381;SDS011;12502;50.678;7.172;2022-12-18T03:44:49;57.75;;;22.48;;
24381;SDS011;12502;50.678;7.172;2022-12-18T03:50:16;46.15;;;20.42;;
24381;SDS011;12502;50.678;7.172;2022-12-18T03:55:21;50.88;;;22.17;;
24381;SDS011;12502;50.678;7.172;2022-12-18T04:00:25;51.30;;;20.70;;
24381;SDS011;12502;50.678;7.172;2022-12-18T04:05:27;50.70;;;21.33;;
24381;SDS011;12502;50.678;7.172;2022-12-18T04:10:30;50.80;;;20.40;;
24381;SDS011;12502;50.678;7.172;2022-12-18T04:15:33;50.00;;;20.45;;
24381;SDS011;12502;50.678;7.172;2022-12-18T04:20:36;46.53;;;19.27;;
24381;SDS011;12502;50.678;7.172;2022-12-18T04:25:38;48.28;;;19.35;;
24381;SDS011;12502;50.678;7.172;2022-12-18T04:30:40;48.30;;;19.80;;
24381;SDS011;12502;50.678;7.172;2022-12-18T04:35:42;37.42;;;16.88;;
24381;SDS011;12502;50.678;7.172;2022-12-18T04:40:43;51.67;;;21.00;;
24381;SDS011;12502;50.678;7.172;2022-12-18T04:45:45;44.50;;;20.30;;
24381;SDS011;12502;50.678;7.172;2022-12-18T04:50:47;45.55;;;19.52;;
24381;SDS011;12502;50.678;7.172;2022-12-18T04:55:49;45.53;;;19.57;;
24381;SDS011;12502;50.678;7.172;2022-12-18T05:00:51;48.47;;;20.17;;
24381;SDS011;12502;50.678;7.172;2022-12-18T05:05:52;43.83;;;19.05;;
24381;SDS011;12502;50.678;7.172;2022-12-18T05:11:01;46.38;;;19.83;;
24381;SDS011;12502;50.678;7.172;2022-12-18T05:16:05;46.45;;;21.25;;
24381;SDS011;12502;50.678;7.172;2022-12-18T05:21:07;54.67;;;21.25;;
24381;SDS011;12502;50.678;7.172;2022-12-18T05:26:09;43.93;;;19.27;;
24381;SDS011;12502;50.678;7.172;2022-12-18T05:31:16;42.08;;;20.10;;
24381;SDS011;12502;50.678;7.172;2022-12-18T05:36:18;44.77;;;17.73;;
24381;SDS011;12502;50.678;7.172;2022-12-18T05:41:20;43.58;;;20.25;;
24381;SDS011;12502;50.678;7.172;2022-12-18T05:46:22;40.90;;;18.77;;
24381;SDS011;12502;50.678;7.172;2022-12-18T05:51:23;46.10;;;19.67;;
24381;SDS011;12502;50.678;7.172;2022-12-18T05:56:25;42.28;;;18.83;;
24381;SDS011;12502;50.678;7.172;2022-12-18T06:01:27;47.05;;;20.27;;
24381;SDS011;12502;50.678;7.172;2022-12-18T06:06:28;48.42;;;20.67;;
24381;SDS011;12502;50.678;7.172;2022-12-18T06:11:30;44.17;;;19.85;;
24381;SDS011;12502;50.678;7.172;2022-12-18T06:16:32;45.38;;;20.42;;
24381;SDS011;12502;50.678;7.172;2022-12-18T06:21:34;50.57;;;20.00;;
24381;SDS011;12502;50.678;7.172;2022-12-18T06:26:37;46.50;;;19.13;;
24381;SDS011;12502;50.678;7.172;2022-12-18T06:31:42;47.15;;;18.90;;
24381;SDS011;12502;50.678;7.172;2022-12-18T06:36:44;45.83;;;20.33;;
24381;SDS011;12502;50.678;7.172;2022-12-18T06:41:45;43.70;;;20.23;;
24381;SDS011;12502;50.678;7.172;2022-12-18T06:46:47;43.90;;;20.17;;
24381;SDS011;12502;50.678;7.172;2022-12-18T06:51:49;41.47;;;20.17;;
24381;SDS011;12502;50.678;7.172;2022-12-18T06:56:50;43.45;;;20.50;;
24381;SDS011;12502;50.678;7.172;2022-12-18T07:01:52;46.78;;;20.05;;
24381;SDS011;12502;50.678;7.172;2022-12-18T07:06:54;43.00;;;20.20;;
24381;SDS011;12502;50.678;7.172;2022-12-18T07:11:55;38.67;;;20.35;;
24381;SDS011;12502;50.678;7.172;2022-12-18T07:16:58;46.40;;;21.08;;
24381;SDS011;12502;50.678;7.172;2022-12-18T07:22:00;42.17;;;20.17;;
24381;SDS011;12502;50.678;7.172;2022-12-18T07:32:04;43.72;;;19.38;;
24381;SDS011;12502;50.678;7.172;2022-12-18T07:37:06;46.57;;;20.90;;
24381;SDS011;12502;50.678;7.172;2022-12-18T07:42:08;46.20;;;19.55;;
24381;SDS011;12502;50.678;7.172;2022-12-18T07:47:28;44.60;;;22.13;;
24381;SDS011;12502;50.678;7.172;2022-12-18T07:52:31;33.67;;;15.03;;
24381;SDS011;12502;50.678;7.172;2022-12-18T07:57:33;45.95;;;20.25;;
24381;SDS011;12502;50.678;7.172;2022-12-18T08:02:51;44.80;;;20.30;;
24381;SDS011;12502;50.678;7.172;2022-12-18T08:07:53;44.10;;;19.93;;
24381;SDS011;12502;50.678;7.172;2022-12-18T08:12:55;44.70;;;19.95;;
24381;SDS011;12502;50.678;7.172;2022-12-18T08:18:04;39.63;;;18.67;;
24381;SDS011;12502;50.678;7.172;2022-12-18T08:23:12;40.33;;;18.33;;
24381;SDS011;12502;50.678;7.172;2022-12-18T08:28:16;42.13;;;18.90;;
24381;SDS011;12502;50.678;7.172;2022-12-18T08:33:18;45.60;;;18.58;;
24381;SDS011;12502;50.678;7.172;2022-12-18T08:38:19;40.65;;;18.08;;
24381;SDS011;12502;50.678;7.172;2022-12-18T08:43:21;36.13;;;18.80;;
24381;SDS011;12502;50.678;7.172;2022-12-18T08:48:42;35.70;;;17.20;;
24381;SDS011;12502;50.678;7.172;2022-12-18T08:53:44;32.75;;;15.35;;
24381;SDS011;12502;50.678;7.172;2022-12-18T08:58:50;33.67;;;18.33;;
24381;SDS011;12502;50.678;7.172;2022-12-18T09:03:55;36.35;;;17.52;;
24381;SDS011;12502;50.678;7.172;2022-12-18T09:08:58;38.13;;;18.15;;
24381;SDS011;12502;50.678;7.172;2022-12-18T09:19:03;37.28;;;17.40;;
24381;SDS011;12502;50.678;7.172;2022-12-18T09:24:05;32.33;;;15.82;;
24381;SDS011;12502;50.678;7.172;2022-12-18T09:29:09;39.60;;;19.67;;
24381;SDS011;12502;50.678;7.172;2022-12-18T09:34:11;32.50;;;17.30;;
24381;SDS011;12502;50.678;7.172;2022-12-18T09:39:13;35.95;;;16.65;;
24381;SDS011;12502;50.678;7.172;2022-12-18T09:49:47;36.58;;;17.35;;
24381;SDS011;12502;50.678;7.172;2022-12-18T09:54:53;34.08;;;16.67;;
24381;SDS011;12502;50.678;7.172;2022-12-18T10:00:15;35.30;;;16.63;;
24381;SDS011;12502;50.678;7.172;2022-12-18T10:05:34;34.03;;;16.42;;
24381;SDS011;12502;50.678;7.172;2022-12-18T10:11:21;32.80;;;15.95;;
24381;SDS011;12502;50.678;7.172;2022-12-18T10:27:17;30.85;;;16.42;;
24381;SDS011;12502;50.678;7.172;2022-12-18T10:32:26;33.63;;;16.80;;
24381;SDS011;12502;50.678;7.172;2022-12-18T10:37:30;35.47;;;16.58;;
24381;SDS011;12502;50.678;7.172;2022-12-18T10:42:32;34.65;;;16.20;;
24381;SDS011;12502;50.678;7.172;2022-12-18T10:47:34;29.88;;;14.95;;
24381;SDS011;12502;50.678;7.172;2022-12-18T10:52:36;37.40;;;17.80;;
24381;SDS011;12502;50.678;7.172;2022-12-18T10:57:45;33.42;;;16.45;;
24381;SDS011;12502;50.678;7.172;2022-12-18T11:02:47;34.38;;;18.23;;
24381;SDS011;12502;50.678;7.172;2022-12-18T11:07:50;25.13;;;12.73;;
24381;SDS011;12502;50.678;7.172;2022-12-18T11:12:52;34.10;;;17.52;;
24381;SDS011;12502;50.678;7.172;2022-12-18T11:17:54;37.88;;;19.25;;
24381;SDS011;12502;50.678;7.172;2022-12-18T11:22:59;36.25;;;18.05;;
24381;SDS011;12502;50.678;7.172;2022-12-18T11:33:27;34.85;;;18.85;;
24381;SDS011;12502;50.678;7.172;2022-12-18T11:38:32;32.85;;;17.45;;
24381;SDS011;12502;50.678;7.172;2022-12-18T11:43:38;39.20;;;18.77;;
24381;SDS011;12502;50.678;7.172;2022-12-18T11:48:49;36.28;;;18.55;;
24381;SDS011;12502;50.678;7.172;2022-12-18T12:10:25;37.00;;;18.88;;
24381;SDS011;12502;50.678;7.172;2022-12-18T12:27:04;40.53;;;19.00;;
24381;SDS011;12502;50.678;7.172;2022-12-18T12:32:07;42.58;;;20.02;;
24381;SDS011;12502;50.678;7.172;2022-12-18T12:53:47;37.47;;;19.38;;
24381;SDS011;12502;50.678;7.172;2022-12-18T13:04:00;36.05;;;18.50;;
24381;SDS011;12502;50.678;7.172;2022-12-18T13:09:03;42.58;;;19.45;;
24381;SDS011;12502;50.678;7.172;2022-12-18T13:14:12;42.05;;;20.38;;
24381;SDS011;12502;50.678;7.172;2022-12-18T13:19:27;36.33;;;18.00;;
24381;SDS011;12502;50.678;7.172;2022-12-18T13:24:30;40.88;;;20.45;;
24381;SDS011;12502;50.678;7.172;2022-12-18T13:34:47;41.60;;;21.25;;
24381;SDS011;12502;50.678;7.172;2022-12-18T13:39:49;40.10;;;20.67;;
24381;SDS011;12502;50.678;7.172;2022-12-18T13:44:51;42.10;;;21.58;;
24381;SDS011;12502;50.678;7.172;2022-12-18T13:49:53;44.25;;;22.70;;
24381;SDS011;12502;50.678;7.172;2022-12-18T13:54:59;39.47;;;20.27;;
24381;SDS011;12502;50.678;7.172;2022-12-18T14:05:24;47.08;;;21.15;;
24381;SDS011;12502;50.678;7.172;2022-12-18T14:10:28;41.67;;;20.70;;
24381;SDS011;12502;50.678;7.172;2022-12-18T14:15:49;39.38;;;20.75;;
24381;SDS011;12502;50.678;7.172;2022-12-18T14:20:53;39.28;;;20.05;;
24381;SDS011;12502;50.678;7.172;2022-12-18T14:25:58;41.78;;;21.48;;
24381;SDS011;12502;50.678;7.172;2022-12-18T14:31:15;43.15;;;21.90;;
24381;SDS011;12502;50.678;7.172;2022-12-18T14:36:23;41.40;;;20.65;;
24381;SDS011;12502;50.678;7.172;2022-12-18T14:41:26;46.03;;;22.35;;
24381;SDS011;12502;50.678;7.172;2022-12-18T14:46:36;44.00;;;22.08;;
24381;SDS011;12502;50.678;7.172;2022-12-18T14:51:41;42.38;;;20.40;;
24381;SDS011;12502;50.678;7.172;2022-12-18T15:02:10;41.67;;;20.73;;
24381;SDS011;12502;50.678;7.172;2022-12-18T15:07:26;43.50;;;20.17;;
24381;SDS011;12502;50.678;7.172;2022-12-18T15:12:32;38.20;;;20.08;;
24381;SDS011;12502;50.678;7.172;2022-12-18T15:17:36;43.75;;;22.20;;
24381;SDS011;12502;50.678;7.172;2022-12-18T15:22:37;44.55;;;21.67;;
24381;SDS011;12502;50.678;7.172;2022-12-18T15:27:40;43.08;;;21.27;;
24381;SDS011;12502;50.678;7.172;2022-12-18T15:32:48;43.72;;;21.83;;
24381;SDS011;12502;50.678;7.172;2022-12-18T15:37:51;43.47;;;20.70;;
24381;SDS011;12502;50.678;7.172;2022-12-18T15:42:53;41.88;;;21.38;;
24381;SDS011;12502;50.678;7.172;2022-12-18T15:48:19;43.90;;;21.23;;
24381;SDS011;12502;50.678;7.172;2022-12-18T15:53:23;45.58;;;23.00;;
24381;SDS011;12502;50.678;7.172;2022-12-18T15:58:26;44.22;;;21.85;;
24381;SDS011;12502;50.678;7.172;2022-12-18T16:03:30;47.38;;;23.65;;
24381;SDS011;12502;50.678;7.172;2022-12-18T16:08:32;50.53;;;24.05;;
24381;SDS011;12502;50.678;7.172;2022-12-18T16:13:34;47.75;;;21.67;;
24381;SDS011;12502;50.678;7.172;2022-12-18T16:18:36;49.20;;;23.50;;
24381;SDS011;12502;50.678;7.172;2022-12-18T16:23:38;50.42;;;24.65;;
24381;SDS011;12502;50.678;7.172;2022-12-18T16:28:40;51.88;;;25.90;;
24381;SDS011;12502;50.678;7.172;2022-12-18T16:33:48;49.97;;;24.20;;
24381;SDS011;12502;50.678;7.172;2022-12-18T16:38:50;52.80;;;24.73;;
24381;SDS011;12502;50.678;7.172;2022-12-18T16:43:52;53.55;;;24.27;;
24381;SDS011;12502;50.678;7.172;2022-12-18T16:54:00;55.30;;;25.67;;
24381;SDS011;12502;50.678;7.172;2022-12-18T16:59:09;53.50;;;26.65;;
24381;SDS011;12502;50.678;7.172;2022-12-18T17:04:12;53.60;;;26.20;;
24381;SDS011;12502;50.678;7.172;2022-12-18T17:09:14;51.70;;;25.15;;
24381;SDS011;12502;50.678;7.172;2022-12-18T17:14:18;55.70;;;26.20;;
24381;SDS011;12502;50.678;7.172;2022-12-18T17:19:22;49.13;;;23.73;;
24381;SDS011;12502;50.678;7.172;2022-12-18T17:24:24;59.40;;;25.70;;
24381;SDS011;12502;50.678;7.172;2022-12-18T17:29:33;55.15;;;25.33;;
24381;SDS011;12502;50.678;7.172;2022-12-18T17:34:35;51.78;;;25.05;;
24381;SDS011;12502;50.678;7.172;2022-12-18T17:39:37;57.47;;;26.33;;
24381;SDS011;12502;50.678;7.172;2022-12-18T17:44:39;54.00;;;26.50;;
24381;SDS011;12502;50.678;7.172;2022-12-18T17:49:42;46.58;;;22.08;;
24381;SDS011;12502;50.678;7.172;2022-12-18T17:54:44;49.17;;;25.25;;
24381;SDS011;12502;50.678;7.172;2022-12-18T17:59:47;58.10;;;27.05;;
24381;SDS011;12502;50.678;7.172;2022-12-18T18:04:48;51.63;;;24.98;;
24381;SDS011;12502;50.678;7.172;2022-12-18T18:09:50;53.75;;;25.75;;
24381;SDS011;12502;50.678;7.172;2022-12-18T18:14:52;55.35;;;27.40;;
24381;SDS011;12502;50.678;7.172;2022-12-18T18:19:54;57.85;;;27.77;;
24381;SDS011;12502;50.678;7.172;2022-12-18T18:24:55;63.97;;;28.02;;
24381;SDS011;12502;50.678;7.172;2022-12-18T18:29:57;57.83;;;26.45;;
24381;SDS011;12502;50.678;7.172;2022-12-18T18:34:59;63.95;;;27.17;;
24381;SDS011;12502;50.678;7.172;2022-12-18T18:40:01;56.17;;;25.55;;
24381;SDS011;12502;50.678;7.172;2022-12-18T18:45:03;56.00;;;26.57;;
24381;SDS011;12502;50.678;7.172;2022-12-18T18:50:05;61.75;;;28.13;;
24381;SDS011;12502;50.678;7.172;2022-12-18T18:55:08;65.07;;;26.83;;
24381;SDS011;12502;50.678;7.172;2022-12-18T19:00:25;52.42;;;24.33;;
24381;SDS011;12502;50.678;7.172;2022-12-18T19:05:29;58.65;;;24.63;;
24381;SDS011;12502;50.678;7.172;2022-12-18T19:10:31;56.88;;;27.13;;
24381;SDS011;12502;50.678;7.172;2022-12-18T19:15:33;60.08;;;28.10;;
24381;SDS011;12502;50.678;7.172;2022-12-18T19:20:35;57.88;;;26.30;;
24381;SDS011;12502;50.678;7.172;2022-12-18T19:25:38;58.53;;;26.05;;
24381;SDS011;12502;50.678;7.172;2022-12-18T19:30:42;53.45;;;26.65;;
24381;SDS011;12502;50.678;7.172;2022-12-18T19:35:44;57.25;;;27.35;;
24381;SDS011;12502;50.678;7.172;2022-12-18T19:40:46;54.90;;;25.50;;
24381;SDS011;12502;50.678;7.172;2022-12-18T19:45:53;57.60;;;27.20;;
24381;SDS011;12502;50.678;7.172;2022-12-18T19:51:02;59.05;;;27.08;;
24381;SDS011;12502;50.678;7.172;2022-12-18T19:56:06;52.15;;;25.63;;
24381;SDS011;12502;50.678;7.172;2022-12-18T20:01:10;54.42;;;26.17;;
24381;SDS011;12502;50.678;7.172;2022-12-18T20:06:27;55.03;;;25.42;;
24381;SDS011;12502;50.678;7.172;2022-12-18T20:11:48;60.42;;;26.73;;
24381;SDS011;12502;50.678;7.172;2022-12-18T20:16:50;54.00;;;26.25;;
24381;SDS011;12502;50.678;7.172;2022-12-18T20:21:54;56.13;;;25.52;;
24381;SDS011;12502;50.678;7.172;2022-12-18T20:26:56;57.83;;;26.52;;
24381;SDS011;12502;50.678;7.172;2022-12-18T20:31:58;54.53;;;25.33;;
24381;SDS011;12502;50.678;7.172;2022-12-18T20:37:00;44.30;;;20.60;;
24381;SDS011;12502;50.678;7.172;2022-12-18T20:42:02;54.05;;;26.13;;
24381;SDS011;12502;50.678;7.172;2022-12-18T20:47:04;57.83;;;26.63;;
24381;SDS011;12502;50.678;7.172;2022-12-18T20:52:09;53.08;;;25.83;;
24381;SDS011;12502;50.678;7.172;2022-12-18T20:57:10;57.97;;;27.45;;
24381;SDS011;12502;50.678;7.172;2022-12-18T21:02:12;59.25;;;28.17;;
24381;SDS011;12502;50.678;7.172;2022-12-18T21:07:14;57.63;;;26.13;;
24381;SDS011;12502;50.678;7.172;2022-12-18T21:12:16;60.20;;;27.45;;
24381;SDS011;12502;50.678;7.172;2022-12-18T21:17:59;58.53;;;26.30;;
24381;SDS011;12502;50.678;7.172;2022-12-18T21:23:01;57.80;;;27.27;;
24381;SDS011;12502;50.678;7.172;2022-12-18T21:28:16;61.83;;;28.35;;
24381;SDS011;12502;50.678;7.172;2022-12-18T21:33:18;59.83;;;26.85;;
24381;SDS011;12502;50.678;7.172;2022-12-18T21:38:20;62.75;;;27.70;;
24381;SDS011;12502;50.678;7.172;2022-12-18T21:43:22;60.00;;;27.65;;
24381;SDS011;12502;50.678;7.172;2022-12-18T21:48:42;54.38;;;27.10;;
24381;SDS011;12502;50.678;7.172;2022-12-18T21:53:44;63.58;;;29.05;;
24381;SDS011;12502;50.678;7.172;2022-12-18T21:58:48;58.35;;;28.38;;
24381;SDS011;12502;50.678;7.172;2022-12-18T22:03:57;61.08;;;29.15;;
24381;SDS011;12502;50.678;7.172;2022-12-18T22:08:59;64.88;;;29.23;;
24381;SDS011;12502;50.678;7.172;2022-12-18T22:14:01;66.68;;;30.67;;
24381;SDS011;12502;50.678;7.172;2022-12-18T22:19:02;66.10;;;30.02;;
24381;SDS011;12502;50.678;7.172;2022-12-18T22:24:05;65.97;;;29.75;;
24381;SDS011;12502;50.678;7.172;2022-12-18T22:29:14;66.50;;;30.35;;
24381;SDS011;12502;50.678;7.172;2022-12-18T22:34:36;62.05;;;29.85;;
24381;SDS011;12502;50.678;7.172;2022-12-18T22:39:38;64.35;;;28.77;;
24381;SDS011;12502;50.678;7.172;2022-12-18T22:44:40;61.20;;;29.10;;
24381;SDS011;12502;50.678;7.172;2022-12-18T22:49:42;61.88;;;29.13;;
24381;SDS011;12502;50.678;7.172;2022-12-18T22:54:44;62.97;;;28.55;;
24381;SDS011;12502;50.678;7.172;2022-12-18T22:59:46;59.85;;;28.10;;
24381;SDS011;12502;50.678;7.172;2022-12-18T23:04:49;60.92;;;28.05;;
24381;SDS011;12502;50.678;7.172;2022-12-18T23:09:50;57.78;;;29.00;;
24381;SDS011;12502;50.678;7.172;2022-12-18T23:15:01;59.90;;;27.95;;
24381;SDS011;12502;50.678;7.172;2022-12-18T23:20:04;52.50;;;28.70;;
24381;SDS011;12502;50.678;7.172;2022-12-18T23:25:06;57.00;;;27.95;;
24381;SDS011;12502;50.678;7.172;2022-12-18T23:30:08;60.60;;;30.00;;
24381;SDS011;12502;50.678;7.172;2022-12-18T23:35:10;55.75;;;26.52;;
24381;SDS011;12502;50.678;7.172;2022-12-18T23:40:16;62.72;;;28.70;;
24381;SDS011;12502;50.678;7.172;2022-12-18T23:45:18;64.53;;;29.23;;
24381;SDS011;12502;50.678;7.172;2022-12-18T23:50:19;64.35;;;28.90;;
24381;SDS011;12502;50.678;7.172;2022-12-18T23:55:28;59.85;;;29.25;;
